Time;durP1;ratioP1;P1;durP2;ratioP2;P2;SDS_P1;SDS_P2;PMS_P1;PMS_P2;Temp;Humidity;BMP_temperature;BMP_pressure;BME280_temperature;BME280_humidity;BME280_pressure;Samples;Min_cycle;Max_cycle;Signal;HPM_P1;HPM_P2
2021/06/08 00:00:13;;;;;;;10.50;5.75;;;18.10;93.50;;;;;;5034346;28;20117;-80
2021/06/08 00:02:39;;;;;;;8.15;5.80;;;18.10;93.50;;;;;;5050071;28;20049;-80
2021/06/08 00:05:05;;;;;;;7.55;5.45;;;18.10;93.40;;;;;;5054035;28;20238;-80
2021/06/08 00:07:31;;;;;;;7.35;5.45;;;18.10;93.30;;;;;;5054857;28;20095;-79
2021/06/08 00:09:56;;;;;;;9.35;6.22;;;18.00;93.40;;;;;;5033549;28;20056;-80
2021/06/08 00:12:22;;;;;;;8.88;6.43;;;18.00;93.40;;;;;;5037301;28;20063;-80
2021/06/08 00:14:48;;;;;;;9.38;6.65;;;17.90;93.50;;;;;;5053109;28;20030;-80
2021/06/08 00:17:13;;;;;;;8.93;5.70;;;18.00;93.50;;;;;;5037119;28;20029;-80
2021/06/08 00:19:39;;;;;;;8.80;6.00;;;18.00;93.60;;;;;;5036280;28;20032;-80
2021/06/08 00:22:05;;;;;;;9.35;6.20;;;18.00;93.70;;;;;;5044600;28;20044;-80
2021/06/08 00:24:30;;;;;;;10.07;6.55;;;18.00;93.80;;;;;;5054162;28;20159;-80
2021/06/08 00:26:56;;;;;;;8.25;6.13;;;18.00;93.90;;;;;;5053397;28;20539;-80
2021/06/08 00:29:22;;;;;;;9.93;6.60;;;18.00;93.90;;;;;;5036403;28;20029;-80
2021/06/08 00:31:47;;;;;;;9.75;6.53;;;18.00;94.00;;;;;;5035857;28;20033;-80
2021/06/08 00:34:13;;;;;;;9.63;6.22;;;18.00;94.10;;;;;;5053211;28;20561;-80
2021/06/08 00:36:39;;;;;;;9.82;6.18;;;18.10;94.00;;;;;;5036420;28;20029;-80
2021/06/08 00:39:05;;;;;;;9.18;6.68;;;18.10;93.90;;;;;;5053406;28;20029;-80
2021/06/08 00:41:45;;;;;;;11.25;5.90;;;18.10;93.90;;;;;;5054035;28;20059;-80
2021/06/08 00:44:13;;;;;;;9.43;6.50;;;18.10;93.90;;;;;;5036803;28;20033;-80
2021/06/08 00:46:40;;;;;;;9.57;6.15;;;18.10;94.00;;;;;;5036033;28;20067;-80
2021/06/08 00:49:06;;;;;;;8.90;6.32;;;18.10;94.00;;;;;;5036715;28;20025;-80
2021/06/08 00:51:32;;;;;;;9.55;6.63;;;18.10;94.00;;;;;;5042778;28;20116;-80
2021/06/08 00:54:03;;;;;;;9.63;6.57;;;18.10;93.90;;;;;;5034386;28;20033;-80
2021/06/08 00:56:29;;;;;;;12.55;6.70;;;18.00;93.90;;;;;;5035651;28;20029;-79
2021/06/08 00:58:54;;;;;;;10.10;6.57;;;18.00;93.90;;;;;;5052474;28;20025;-79
2021/06/08 01:01:20;;;;;;;8.73;5.95;;;18.10;94.00;;;;;;5050219;28;20390;-80
2021/06/08 01:03:45;;;;;;;11.18;7.72;;;18.00;94.00;;;;;;5035577;28;20041;-80
2021/06/08 01:06:11;;;;;;;8.55;6.43;;;18.00;94.10;;;;;;5052918;28;20029;-80
2021/06/08 01:08:37;;;;;;;12.50;6.95;;;18.00;94.20;;;;;;5034944;28;20025;-80
2021/06/08 01:11:02;;;;;;;10.27;6.90;;;18.00;94.20;;;;;;5019377;28;20025;-80
2021/06/08 01:13:29;;;;;;;11.32;6.90;;;18.00;94.20;;;;;;5035259;28;20453;-79
2021/06/08 01:15:54;;;;;;;9.65;7.03;;;17.90;94.30;;;;;;5034947;28;20312;-80
2021/06/08 01:18:22;;;;;;;8.77;6.03;;;18.00;94.30;;;;;;5035413;28;20513;-79
2021/06/08 01:20:59;;;;;;;13.65;7.13;;;18.00;94.30;;;;;;5034092;28;20036;-80
2021/06/08 01:23:25;;;;;;;10.77;7.13;;;18.00;94.30;;;;;;5035245;28;20029;-79
2021/06/08 01:25:51;;;;;;;10.68;7.25;;;17.90;94.40;;;;;;5052196;28;20400;-80
2021/06/08 01:28:19;;;;;;;11.18;7.00;;;17.90;94.50;;;;;;5053477;28;20029;-80
2021/06/08 01:30:46;;;;;;;10.15;6.95;;;17.80;94.70;;;;;;5035079;28;20036;-80
2021/06/08 01:33:12;;;;;;;11.07;6.60;;;17.80;94.80;;;;;;5034779;28;20059;-80
2021/06/08 01:35:39;;;;;;;8.48;6.20;;;17.80;94.90;;;;;;5052264;28;20017;-79
2021/06/08 01:38:05;;;;;;;9.23;6.05;;;17.80;94.80;;;;;;5035719;28;20095;-79
2021/06/08 01:40:31;;;;;;;15.52;8.80;;;17.80;94.70;;;;;;5035241;28;20021;-79
2021/06/08 01:42:57;;;;;;;9.80;7.22;;;17.80;94.60;;;;;;5035145;28;20132;-79
2021/06/08 01:45:23;;;;;;;13.15;8.02;;;17.80;94.70;;;;;;5035848;28;20381;-81
2021/06/08 01:47:48;;;;;;;11.80;8.02;;;17.80;94.80;;;;;;5035265;28;20039;-80
2021/06/08 01:50:14;;;;;;;11.88;7.20;;;17.70;94.90;;;;;;5035108;28;20025;-79
2021/06/08 01:53:03;;;;;;;9.73;7.45;;;17.70;94.90;;;;;;5035342;28;20481;-79
2021/06/08 01:55:35;;;;;;;12.18;7.82;;;17.70;95.00;;;;;;5035770;28;20025;-79
2021/06/08 01:58:20;;;;;;;9.93;7.38;;;17.70;95.00;;;;;;5034741;28;20075;-78
2021/06/08 02:01:01;;;;;;;11.98;7.45;;;17.70;95.00;;;;;;5051424;28;20079;-79
2021/06/08 02:03:41;;;;;;;11.18;7.60;;;17.70;95.00;;;;;;5034727;28;20120;-80
2021/06/08 02:06:29;;;;;;;13.43;7.30;;;17.80;94.80;;;;;;5037849;28;20025;-79
2021/06/08 02:09:09;;;;;;;10.77;7.63;;;17.80;94.60;;;;;;5056706;28;20020;-79
2021/06/08 02:12:05;;;;;;;12.88;8.05;;;17.80;94.60;;;;;;5039272;28;20032;-80
2021/06/08 02:14:59;;;;;;;11.48;7.63;;;17.80;94.60;;;;;;5039522;28;20033;-80
2021/06/08 02:17:44;;;;;;;11.75;8.00;;;17.70;94.70;;;;;;5039040;28;20033;-79
2021/06/08 02:20:16;;;;;;;13.00;8.55;;;17.70;94.70;;;;;;5035471;28;20021;-80
2021/06/08 02:22:50;;;;;;;12.70;8.45;;;17.70;94.70;;;;;;5036071;28;20026;-80
2021/06/08 02:25:18;;;;;;;12.38;8.27;;;17.70;94.70;;;;;;5039169;28;20029;-79
2021/06/08 02:27:44;;;;;;;13.82;8.32;;;17.70;94.70;;;;;;5056184;28;20032;-80
2021/06/08 02:30:12;;;;;;;16.83;9.43;;;17.70;94.80;;;;;;5056695;28;20052;-80
2021/06/08 02:32:39;;;;;;;12.70;8.52;;;17.70;94.80;;;;;;5034638;28;20081;-80
2021/06/08 02:35:06;;;;;;;12.20;8.93;;;17.70;94.80;;;;;;5038924;28;20492;-79
2021/06/08 02:37:34;;;;;;;15.43;9.80;;;17.70;94.90;;;;;;5056386;28;20013;-79
2021/06/08 02:40:00;;;;;;;15.98;9.68;;;17.70;94.80;;;;;;5056329;28;20029;-79
2021/06/08 02:42:26;;;;;;;16.20;9.63;;;17.70;94.70;;;;;;5056052;28;20029;-79
2021/06/08 02:44:53;;;;;;;16.80;9.52;;;17.70;94.70;;;;;;5055906;28;20036;-79
2021/06/08 02:47:20;;;;;;;14.07;8.85;;;17.70;94.80;;;;;;5037092;28;20091;-79
2021/06/08 02:49:49;;;;;;;13.77;9.48;;;17.70;94.80;;;;;;5055501;28;20029;-79
2021/06/08 02:52:16;;;;;;;15.30;9.55;;;17.70;94.80;;;;;;5038547;28;20029;-79
2021/06/08 02:54:43;;;;;;;14.88;9.32;;;17.70;94.80;;;;;;5038155;28;20120;-79
2021/06/08 02:57:10;;;;;;;16.02;10.02;;;17.70;94.80;;;;;;5038104;28;20029;-79
2021/06/08 02:59:37;;;;;;;15.25;9.27;;;17.70;94.60;;;;;;5037884;28;20025;-80
2021/06/08 03:02:07;;;;;;;15.77;9.70;;;17.80;94.60;;;;;;5055221;28;20049;-79
2021/06/08 03:05:03;;;;;;;15.40;9.88;;;17.80;94.50;;;;;;5037803;28;20029;-79
2021/06/08 03:07:36;;;;;;;17.95;10.23;;;17.70;94.40;;;;;;5040821;28;20482;-79
2021/06/08 03:10:10;;;;;;;14.50;9.15;;;17.70;94.50;;;;;;5033421;28;20056;-79
2021/06/08 03:12:52;;;;;;;18.02;10.35;;;17.70;94.40;;;;;;5037132;28;20435;-80
2021/06/08 03:15:20;;;;;;;15.05;10.07;;;17.70;94.30;;;;;;5019880;28;20108;-79
2021/06/08 03:17:46;;;;;;;17.50;10.40;;;17.70;94.30;;;;;;5034159;28;20037;-80
2021/06/08 03:20:20;;;;;;;15.68;10.10;;;17.60;94.30;;;;;;5031066;28;20032;-79
2021/06/08 03:22:48;;;;;;;16.45;10.20;;;17.60;94.40;;;;;;5037760;28;20040;-80
2021/06/08 03:25:16;;;;;;;18.80;11.57;;;17.60;94.40;;;;;;5038137;28;20028;-79
2021/06/08 03:27:43;;;;;;;17.50;10.75;;;17.70;94.30;;;;;;5037239;28;20434;-79
2021/06/08 03:30:10;;;;;;;16.35;10.23;;;17.70;94.10;;;;;;5034099;28;20536;-79
2021/06/08 03:32:37;;;;;;;16.15;10.02;;;17.70;94.10;;;;;;5031882;28;20057;-79
2021/06/08 03:35:07;;;;;;;14.90;10.07;;;17.70;94.10;;;;;;4998257;28;20026;-79
2021/06/08 03:37:34;;;;;;;14.13;9.75;;;17.70;94.10;;;;;;4998589;28;20064;-79
2021/06/08 03:40:01;;;;;;;17.52;10.80;;;17.70;94.10;;;;;;5009032;28;20033;-79
2021/06/08 03:42:27;;;;;;;16.20;9.32;;;17.70;94.10;;;;;;5003284;28;20030;-79
2021/06/08 03:44:53;;;;;;;18.23;10.27;;;17.70;94.20;;;;;;5013025;28;20030;-79
2021/06/08 03:47:19;;;;;;;15.18;9.73;;;17.70;94.20;;;;;;4998232;28;20022;-79
2021/06/08 03:49:47;;;;;;;17.40;10.93;;;17.70;94.30;;;;;;5023297;28;20378;-79
2021/06/08 03:52:12;;;;;;;14.85;9.68;;;17.70;94.30;;;;;;5034596;28;20522;-79
2021/06/08 03:54:38;;;;;;;16.73;11.05;;;17.70;94.30;;;;;;5018466;28;20107;-80
2021/06/08 03:57:04;;;;;;;16.42;10.02;;;17.70;94.10;;;;;;5018816;28;20116;-80
2021/06/08 03:59:30;;;;;;;16.30;9.98;;;17.70;94.00;;;;;;5010636;28;20029;-79
2021/06/08 04:01:57;;;;;;;16.63;10.77;;;17.70;94.00;;;;;;5014541;28;20147;-79
2021/06/08 04:04:23;;;;;;;15.80;11.13;;;17.70;94.00;;;;;;5015141;28;20021;-79
2021/06/08 04:06:50;;;;;;;18.55;10.45;;;17.60;93.90;;;;;;5014907;28;20029;-79
2021/06/08 04:09:17;;;;;;;18.40;10.35;;;17.60;94.00;;;;;;5017397;28;20092;-79
2021/06/08 04:11:48;;;;;;;18.33;10.50;;;17.70;93.90;;;;;;5034484;28;20048;-80
2021/06/08 04:14:15;;;;;;;12.18;7.68;;;17.70;94.00;;;;;;5010063;28;20505;-80
2021/06/08 04:16:40;;;;;;;15.77;10.55;;;17.80;94.10;;;;;;5016364;28;20036;-81
2021/06/08 04:19:10;;;;;;;16.30;10.60;;;17.80;94.00;;;;;;5016803;28;20025;-80
2021/06/08 04:21:36;;;;;;;19.55;11.02;;;17.80;94.00;;;;;;5034273;28;20108;-80
2021/06/08 04:24:04;;;;;;;16.48;10.73;;;17.90;93.90;;;;;;5005146;28;20061;-80
2021/06/08 04:26:30;;;;;;;19.20;10.95;;;17.80;94.00;;;;;;5014986;28;20518;-80
2021/06/08 04:28:56;;;;;;;19.35;11.82;;;17.80;94.00;;;;;;5029839;28;20036;-80
2021/06/08 04:31:23;;;;;;;17.27;10.82;;;17.70;94.30;;;;;;5020526;28;20029;-80
2021/06/08 04:33:49;;;;;;;16.25;10.52;;;17.70;94.30;;;;;;5020840;28;20379;-80
2021/06/08 04:36:30;;;;;;;19.90;11.35;;;17.80;94.20;;;;;;4997028;28;20050;-80
2021/06/08 04:38:55;;;;;;;16.65;10.15;;;17.80;94.10;;;;;;5051738;28;20025;-80
2021/06/08 04:41:21;;;;;;;19.42;10.77;;;17.90;94.10;;;;;;5030140;28;20029;-80
2021/06/08 04:43:47;;;;;;;17.70;10.98;;;17.90;93.90;;;;;;5016005;28;20042;-80
2021/06/08 04:46:16;;;;;;;19.60;13.18;;;17.80;93.80;;;;;;5015471;28;20128;-80
2021/06/08 04:48:43;;;;;;;18.52;11.73;;;17.70;93.80;;;;;;5032684;28;20036;-80
2021/06/08 04:51:10;;;;;;;19.45;12.27;;;17.70;93.90;;;;;;5042065;28;20036;-82
2021/06/08 04:53:36;;;;;;;16.85;11.82;;;17.80;93.80;;;;;;5047563;28;20032;-80
2021/06/08 04:56:05;;;;;;;17.27;11.23;;;17.80;93.80;;;;;;5041804;28;20115;-84
2021/06/08 04:58:31;;;;;;;17.75;11.13;;;17.80;93.70;;;;;;5031435;28;20029;-85
2021/06/08 05:01:09;;;;;;;16.50;11.40;;;17.80;93.70;;;;;;5032396;28;20609;-84
2021/06/08 05:03:41;;;;;;;15.32;10.80;;;17.80;93.70;;;;;;5041451;28;20033;-84
2021/06/08 05:06:10;;;;;;;18.58;11.68;;;17.90;93.70;;;;;;5041344;28;20022;-83
2021/06/08 05:08:40;;;;;;;18.08;11.40;;;17.90;93.90;;;;;;5031460;28;20025;-83
2021/06/08 05:11:19;;;;;;;16.35;10.63;;;17.90;94.00;;;;;;5037416;28;20044;-83
2021/06/08 05:13:50;;;;;;;18.45;11.75;;;18.00;94.10;;;;;;5043791;28;20562;-83
2021/06/08 05:16:17;;;;;;;19.90;12.00;;;18.00;94.00;;;;;;5047003;28;20067;-83
2021/06/08 05:18:51;;;;;;;17.92;10.85;;;18.00;94.10;;;;;;5035174;28;20511;-80
2021/06/08 05:21:18;;;;;;;16.33;10.95;;;18.10;94.10;;;;;;5025301;28;20108;-81
2021/06/08 05:23:45;;;;;;;19.40;12.10;;;18.00;93.60;;;;;;5024262;28;20476;-81
2021/06/08 05:26:11;;;;;;;19.67;12.45;;;18.00;93.50;;;;;;5023342;28;20069;-82
2021/06/08 05:28:40;;;;;;;20.88;12.30;;;18.10;93.30;;;;;;5034596;28;20458;-82
2021/06/08 05:31:06;;;;;;;17.88;11.63;;;18.10;93.30;;;;;;5036891;28;20041;-84
2021/06/08 05:33:35;;;;;;;17.50;10.93;;;18.10;93.40;;;;;;5023209;28;20048;-85
2021/06/08 05:36:01;;;;;;;23.90;12.45;;;18.20;93.90;;;;;;5035164;28;20037;-82
2021/06/08 05:38:37;;;;;;;18.20;11.90;;;18.20;93.70;;;;;;5052670;28;20021;-82
2021/06/08 05:41:09;;;;;;;18.25;12.35;;;18.20;93.20;;;;;;5035183;28;20119;-83
2021/06/08 05:43:35;;;;;;;20.40;12.05;;;18.20;93.20;;;;;;5035840;28;20029;-83
2021/06/08 05:46:03;;;;;;;18.38;12.23;;;18.20;93.20;;;;;;5053385;28;20029;-83
2021/06/08 05:48:29;;;;;;;17.25;12.10;;;18.30;93.20;;;;;;5035656;28;20457;-82
2021/06/08 05:50:56;;;;;;;17.98;12.65;;;18.30;93.50;;;;;;5052090;28;20040;-81
2021/06/08 05:53:23;;;;;;;22.33;13.07;;;18.30;93.80;;;;;;5035042;28;20029;-85
2021/06/08 05:55:50;;;;;;;19.73;13.27;;;18.40;93.40;;;;;;5034356;28;20021;-82
2021/06/08 05:58:21;;;;;;;17.52;12.38;;;18.40;93.10;;;;;;5053358;28;20029;-84
2021/06/08 06:00:47;;;;;;;19.45;12.30;;;18.50;92.90;;;;;;5035213;28;20025;-83
2021/06/08 06:03:14;;;;;;;21.30;12.38;;;18.50;92.60;;;;;;5031068;28;20115;-81
2021/06/08 06:05:42;;;;;;;21.77;12.20;;;18.60;92.40;;;;;;5032280;28;20080;-85
2021/06/08 06:08:08;;;;;;;19.88;12.48;;;18.60;92.10;;;;;;5033088;28;20029;-84
2021/06/08 06:10:33;;;;;;;20.58;12.48;;;18.60;92.10;;;;;;5032353;28;20026;-85
2021/06/08 06:13:01;;;;;;;19.60;12.55;;;18.70;92.10;;;;;;5032497;28;20400;-83
2021/06/08 06:15:28;;;;;;;22.02;12.82;;;18.70;92.50;;;;;;5035105;28;20025;-85
2021/06/08 06:17:55;;;;;;;18.95;12.65;;;18.70;93.00;;;;;;5033057;28;20082;-86
2021/06/08 06:20:21;;;;;;;22.45;12.85;;;18.70;92.90;;;;;;5031277;28;20045;-85
2021/06/08 06:22:47;;;;;;;20.13;13.05;;;18.80;92.60;;;;;;5032465;28;20115;-84
2021/06/08 06:25:13;;;;;;;21.35;12.60;;;18.80;92.40;;;;;;5031731;28;20025;-82
2021/06/08 06:27:40;;;;;;;21.40;13.07;;;18.80;92.80;;;;;;5031268;28;20053;-81
2021/06/08 06:30:09;;;;;;;20.58;12.02;;;18.90;92.90;;;;;;5034706;28;20120;-82
2021/06/08 06:32:35;;;;;;;16.98;12.10;;;18.90;92.70;;;;;;5052159;28;20049;-83
2021/06/08 06:35:03;;;;;;;20.85;12.77;;;18.90;92.10;;;;;;5031169;28;20017;-82
2021/06/08 06:37:29;;;;;;;19.52;12.05;;;18.90;92.40;;;;;;5021323;28;20458;-81
2021/06/08 06:39:57;;;;;;;17.67;11.43;;;19.00;91.90;;;;;;5040898;28;20021;-81
2021/06/08 06:42:27;;;;;;;18.70;12.05;;;19.00;92.10;;;;;;5028587;28;20044;-81
2021/06/08 06:44:55;;;;;;;21.50;13.18;;;19.00;92.20;;;;;;5049054;28;20040;-81
2021/06/08 06:47:21;;;;;;;21.23;12.95;;;19.00;92.50;;;;;;5038066;28;20029;-80
2021/06/08 06:49:47;;;;;;;17.55;11.80;;;18.90;93.00;;;;;;5024996;28;20025;-89
2021/06/08 06:52:13;;;;;;;22.23;12.55;;;18.90;93.10;;;;;;5030124;28;20029;-79
2021/06/08 06:54:39;;;;;;;21.65;12.00;;;18.90;93.00;;;;;;5020949;28;20053;-79
2021/06/08 06:57:05;;;;;;;19.38;11.75;;;18.90;92.90;;;;;;5052143;28;20060;-82
2021/06/08 06:59:31;;;;;;;20.88;12.02;;;19.00;92.20;;;;;;5043213;28;20024;-81
2021/06/08 07:01:58;;;;;;;16.52;11.13;;;19.00;91.80;;;;;;5037040;28;20078;-84
2021/06/08 07:04:25;;;;;;;17.58;11.73;;;19.10;91.80;;;;;;5023670;28;20412;-85
2021/06/08 07:06:52;;;;;;;20.08;11.73;;;19.10;91.60;;;;;;5035176;28;20032;-78
2021/06/08 07:09:25;;;;;;;20.30;11.90;;;19.20;91.30;;;;;;5037231;28;20048;-78
2021/06/08 07:11:55;;;;;;;17.25;11.38;;;19.30;91.20;;;;;;5026644;28;20075;-79
2021/06/08 07:14:21;;;;;;;20.50;11.70;;;19.40;91.40;;;;;;5028515;28;20025;-79
2021/06/08 07:16:50;;;;;;;18.60;11.13;;;19.40;91.40;;;;;;5019297;28;20498;-81
2021/06/08 07:19:19;;;;;;;17.73;10.80;;;19.40;91.00;;;;;;5022872;28;20036;-80
2021/06/08 07:21:46;;;;;;;18.60;11.13;;;19.50;90.90;;;;;;5027892;28;20026;-81
2021/06/08 07:24:12;;;;;;;18.63;10.70;;;19.50;90.80;;;;;;5030330;28;20029;-79
2021/06/08 07:26:39;;;;;;;16.40;10.93;;;19.50;90.60;;;;;;5036819;28;20025;-79
2021/06/08 07:29:11;;;;;;;17.25;11.30;;;19.50;90.50;;;;;;5038521;28;20021;-79
2021/06/08 07:32:03;;;;;;;16.08;10.77;;;19.50;90.40;;;;;;5046216;28;20382;-81
2021/06/08 07:34:36;;;;;;;16.65;11.05;;;19.60;90.50;;;;;;5032525;28;20376;-80
2021/06/08 07:37:03;;;;;;;18.88;10.20;;;19.50;90.50;;;;;;5020196;28;20025;-79
2021/06/08 07:39:49;;;;;;;17.17;10.65;;;19.50;90.50;;;;;;5047864;28;20028;-84
2021/06/08 07:42:39;;;;;;;18.75;10.57;;;19.50;90.60;;;;;;5031047;28;20110;-84
2021/06/08 07:45:06;;;;;;;16.60;10.38;;;19.50;91.00;;;;;;4999242;28;20033;-84
2021/06/08 07:47:34;;;;;;;18.30;10.38;;;19.50;90.80;;;;;;5036380;28;20024;-87
2021/06/08 07:50:02;;;;;;;15.57;10.50;;;19.60;90.40;;;;;;5025316;28;20032;-85
2021/06/08 07:52:29;;;;;;;16.77;10.50;;;19.70;90.40;;;;;;5032765;28;20028;-83
2021/06/08 07:54:56;;;;;;;16.67;10.18;;;19.70;90.50;;;;;;5036095;28;20021;-83
2021/06/08 07:57:23;;;;;;;14.32;9.88;;;19.70;90.70;;;;;;5018126;28;20344;-84
2021/06/08 07:59:50;;;;;;;16.25;10.45;;;19.70;90.30;;;;;;5017420;28;20097;-85
2021/06/08 08:02:20;;;;;;;16.80;10.57;;;19.80;90.40;;;;;;5017586;28;20145;-80
2021/06/08 08:04:50;;;;;;;15.75;10.48;;;19.80;90.20;;;;;;5035865;28;20037;-82
2021/06/08 08:07:23;;;;;;;15.60;10.18;;;19.80;90.20;;;;;;5019167;28;20021;-88
2021/06/08 08:09:50;;;;;;;18.50;11.20;;;19.90;90.10;;;;;;5018961;28;20087;-88
2021/06/08 08:12:16;;;;;;;17.55;10.23;;;20.10;90.10;;;;;;5023937;28;20029;-88
2021/06/08 08:14:46;;;;;;;17.63;11.05;;;20.20;89.70;;;;;;5005319;28;20536;-81
2021/06/08 08:17:12;;;;;;;16.55;10.75;;;20.10;88.60;;;;;;5047250;28;20059;-81
2021/06/08 08:19:40;;;;;;;15.07;11.05;;;20.20;89.20;;;;;;5015440;28;20033;-81
2021/06/08 08:22:06;;;;;;;17.30;11.40;;;20.30;89.30;;;;;;5028471;28;20029;-81
2021/06/08 08:24:33;;;;;;;18.70;10.65;;;20.20;88.10;;;;;;5020348;28;20021;-81
2021/06/08 08:27:01;;;;;;;15.85;9.93;;;20.30;88.20;;;;;;5019197;28;20454;-81
2021/06/08 08:29:27;;;;;;;15.80;10.10;;;20.40;88.50;;;;;;5027530;28;20048;-84
2021/06/08 08:31:53;;;;;;;17.90;10.63;;;20.50;88.10;;;;;;5025500;28;20083;-85
2021/06/08 08:34:19;;;;;;;15.80;11.18;;;20.60;87.80;;;;;;5002634;28;20057;-81
2021/06/08 08:36:44;;;;;;;16.30;10.65;;;20.70;88.20;;;;;;5012196;28;20021;-80
2021/06/08 08:39:11;;;;;;;17.05;10.57;;;20.80;87.90;;;;;;5000808;28;20017;-79
2021/06/08 08:41:38;;;;;;;19.30;11.65;;;20.90;88.30;;;;;;5007215;28;20029;-80
2021/06/08 08:44:06;;;;;;;15.50;10.43;;;21.00;86.40;;;;;;5008216;28;20022;-81
2021/06/08 08:46:32;;;;;;;17.95;11.00;;;21.10;85.90;;;;;;5001562;28;20053;-86
2021/06/08 08:48:58;;;;;;;18.55;10.43;;;21.20;86.00;;;;;;5012843;28;20314;-83
2021/06/08 08:51:26;;;;;;;15.55;10.63;;;21.30;86.70;;;;;;4997888;28;20030;-83
2021/06/08 08:53:54;;;;;;;16.63;10.68;;;21.30;86.60;;;;;;4995763;28;20022;-83
2021/06/08 08:56:38;;;;;;;17.50;10.77;;;21.30;86.10;;;;;;5026967;28;20030;-82
2021/06/08 08:59:10;;;;;;;15.63;10.55;;;21.40;85.20;;;;;;5010611;28;20028;-80
2021/06/08 09:01:38;;;;;;;15.13;10.38;;;21.30;85.30;;;;;;5007271;28;20058;-85
2021/06/08 09:04:05;;;;;;;13.95;9.93;;;21.40;85.00;;;;;;5008308;28;20037;-83
2021/06/08 09:06:31;;;;;;;15.35;10.60;;;21.30;84.80;;;;;;5018159;28;20053;-82
2021/06/08 09:08:58;;;;;;;20.10;10.98;;;21.30;84.70;;;;;;5012036;28;20079;-80
2021/06/08 09:11:23;;;;;;;15.45;10.15;;;21.40;84.40;;;;;;5002476;28;20056;-82
2021/06/08 09:13:49;;;;;;;15.38;10.55;;;21.50;84.90;;;;;;4995984;28;20030;-83
2021/06/08 09:16:15;;;;;;;13.88;9.77;;;21.60;84.60;;;;;;5008553;28;20053;-81
2021/06/08 09:18:42;;;;;;;19.20;10.75;;;21.60;84.70;;;;;;5014586;28;20029;-79
2021/06/08 09:21:23;;;;;;;17.63;10.30;;;21.60;84.20;;;;;;5011398;28;20028;-82
2021/06/08 09:23:49;;;;;;;15.98;9.68;;;21.70;83.90;;;;;;5004560;28;20022;-80
2021/06/08 09:26:15;;;;;;;15.35;10.20;;;21.80;83.40;;;;;;5015498;28;20510;-82
2021/06/08 09:28:43;;;;;;;16.30;10.60;;;21.80;84.00;;;;;;5016390;28;20022;-83
2021/06/08 09:31:19;;;;;;;14.40;10.60;;;21.90;83.90;;;;;;5011317;28;20150;-87
2021/06/08 09:33:55;;;;;;;16.30;10.80;;;22.00;82.10;;;;;;5018951;28;20103;-84
2021/06/08 09:36:23;;;;;;;18.38;10.77;;;22.00;82.00;;;;;;5035641;28;20029;-80
2021/06/08 09:38:54;;;;;;;16.55;10.02;;;22.00;82.20;;;;;;5034518;28;20104;-83
2021/06/08 09:42:00;;;;;;;19.27;10.38;;;22.10;82.70;;;;;;5052506;28;20032;-82
2021/06/08 09:44:25;;;;;;;17.60;10.52;;;22.20;82.80;;;;;;5051801;28;20036;-81
2021/06/08 09:46:53;;;;;;;17.83;11.50;;;22.20;81.80;;;;;;5034251;28;20389;-83
2021/06/08 09:49:34;;;;;;;15.27;10.80;;;22.30;81.90;;;;;;5034770;28;20066;-81
2021/06/08 09:52:01;;;;;;;15.48;11.32;;;22.30;81.30;;;;;;5034557;28;20029;-83
2021/06/08 09:54:34;;;;;;;16.77;10.90;;;22.40;81.30;;;;;;5052797;28;20100;-84
2021/06/08 09:57:15;;;;;;;20.45;11.48;;;22.50;80.50;;;;;;5034763;28;20029;-84
2021/06/08 09:59:58;;;;;;;15.98;10.40;;;22.50;80.60;;;;;;5034569;28;20490;-82
2021/06/08 10:02:45;;;;;;;16.83;10.88;;;22.60;81.20;;;;;;5034581;28;20057;-83
2021/06/08 10:05:29;;;;;;;15.60;10.02;;;22.60;80.40;;;;;;5035142;28;20025;-83
2021/06/08 10:08:00;;;;;;;15.13;10.65;;;22.50;79.60;;;;;;5034572;28;20036;-84
2021/06/08 10:10:44;;;;;;;16.98;10.98;;;22.50;79.50;;;;;;5053040;28;20033;-85
2021/06/08 10:13:12;;;;;;;16.50;10.80;;;22.40;79.50;;;;;;5035115;28;20029;-81
2021/06/08 10:15:56;;;;;;;18.17;11.02;;;22.40;80.50;;;;;;5034668;28;20120;-84
2021/06/08 10:18:23;;;;;;;15.15;10.30;;;22.50;79.50;;;;;;5033792;28;20048;-82
2021/06/08 10:20:54;;;;;;;17.77;10.98;;;22.50;79.80;;;;;;5051806;28;20116;-82
2021/06/08 10:23:23;;;;;;;18.80;11.82;;;22.40;79.50;;;;;;5034530;28;20079;-80
2021/06/08 10:25:52;;;;;;;112.38;64.82;;;22.40;80.60;;;;;;5034217;28;20029;-80
2021/06/08 10:28:19;;;;;;;49.63;33.13;;;22.50;80.80;;;;;;5056376;28;20108;-81
2021/06/08 10:30:46;;;;;;;25.48;15.75;;;22.50;80.10;;;;;;5055541;28;20071;-81
2021/06/08 10:33:12;;;;;;;17.77;12.45;;;22.60;79.80;;;;;;5049513;28;20489;-80
2021/06/08 10:35:38;;;;;;;19.27;11.85;;;22.60;78.90;;;;;;5049171;28;20116;-81
2021/06/08 10:38:06;;;;;;;17.38;12.80;;;22.70;80.20;;;;;;5034616;28;20477;-80
2021/06/08 10:40:34;;;;;;;18.85;12.68;;;22.60;79.00;;;;;;5037809;28;20534;-80
2021/06/08 10:43:00;;;;;;;18.10;11.60;;;22.60;79.40;;;;;;5037785;28;20040;-82
2021/06/08 10:45:40;;;;;;;16.95;11.70;;;22.60;79.40;;;;;;5038396;28;20027;-83
2021/06/08 10:48:21;;;;;;;18.98;11.98;;;22.60;79.30;;;;;;5055849;28;20017;-83
2021/06/08 10:51:06;;;;;;;17.23;12.10;;;22.70;80.60;;;;;;5037864;28;20032;-83
2021/06/08 10:53:35;;;;;;;16.25;11.55;;;22.70;80.40;;;;;;5055767;28;20029;-82
2021/06/08 10:56:17;;;;;;;17.52;12.30;;;22.80;79.30;;;;;;5037763;28;20029;-81
2021/06/08 10:58:49;;;;;;;;;;;22.90;79.10;;;;;;5038003;28;20025;-82
2021/06/08 11:01:31;;;;;;;20.23;12.30;;;23.00;78.80;;;;;;5054751;28;19908;-84
2021/06/08 11:03:58;;;;;;;19.10;12.65;;;22.90;78.60;;;;;;5036595;28;20045;-82
2021/06/08 11:06:50;;;;;;;18.48;13.43;;;22.90;79.00;;;;;;5037961;28;20068;-83
2021/06/08 11:09:31;;;;;;;18.27;12.98;;;23.00;78.90;;;;;;5023561;28;20025;-85
2021/06/08 11:12:00;;;;;;;19.77;13.38;;;23.00;78.20;;;;;;5055157;28;20462;-83
2021/06/08 11:14:38;;;;;;;18.13;12.55;;;23.00;78.20;;;;;;5034436;28;20045;-84
2021/06/08 11:17:08;;;;;;;20.08;13.70;;;23.00;78.60;;;;;;5039229;28;20078;-85
2021/06/08 11:19:52;;;;;;;18.70;12.85;;;23.10;77.80;;;;;;5038373;28;20108;-85
2021/06/08 11:22:33;;;;;;;20.75;12.63;;;23.10;77.30;;;;;;5055549;28;20033;-85
2021/06/08 11:25:03;;;;;;;20.27;12.53;;;23.20;78.00;;;;;;5037118;28;20032;-84
2021/06/08 11:27:55;;;;;;;20.83;14.00;;;23.20;78.20;;;;;;5034527;28;20036;-83
2021/06/08 11:30:21;;;;;;;;;;;23.30;79.80;;;;;;5050205;28;20029;-85
2021/06/08 11:32:47;;;;;;;18.52;12.98;;;23.30;79.80;;;;;;5036846;28;19927;-84
2021/06/08 11:35:19;;;;;;;20.23;13.65;;;23.30;77.30;;;;;;5034190;28;20108;-83
2021/06/08 11:38:10;;;;;;;18.02;12.93;;;23.20;77.40;;;;;;5035885;28;20021;-84
2021/06/08 11:40:37;;;;;;;18.60;12.65;;;23.10;76.90;;;;;;5037027;28;20030;-84
2021/06/08 11:43:10;;;;;;;17.83;13.15;;;23.10;76.90;;;;;;5034156;28;20043;-83
2021/06/08 11:45:41;;;;;;;19.88;13.07;;;23.10;76.70;;;;;;5043274;28;20029;-84
2021/06/08 11:48:36;;;;;;;17.20;12.20;;;23.20;77.20;;;;;;5051325;28;20032;-83
2021/06/08 11:51:03;;;;;;;16.33;11.95;;;23.30;79.10;;;;;;5048297;28;20524;-84
2021/06/08 11:53:32;;;;;;;19.40;12.52;;;23.30;79.40;;;;;;5033804;28;20021;-82
2021/06/08 11:56:08;;;;;;;22.52;13.88;;;23.30;80.50;;;;;;5045334;28;20029;-81
2021/06/08 11:58:39;;;;;;;17.83;12.38;;;23.40;80.10;;;;;;5033100;28;20021;-80
2021/06/08 12:01:07;;;;;;;19.70;12.88;;;23.40;78.60;;;;;;5019907;28;20063;-80
2021/06/08 12:03:37;;;;;;;20.63;13.52;;;23.50;77.90;;;;;;5046187;28;20037;-81
2021/06/08 12:06:05;;;;;;;19.15;13.57;;;23.60;76.00;;;;;;5054140;28;20036;-80
2021/06/08 12:08:32;;;;;;;17.42;12.45;;;23.60;75.30;;;;;;5054145;28;20053;-80
2021/06/08 12:11:17;;;;;;;18.30;13.15;;;23.80;76.20;;;;;;5053173;28;20560;-80
2021/06/08 12:13:44;;;;;;;18.77;13.18;;;23.90;74.30;;;;;;5035472;28;20036;-80
2021/06/08 12:16:14;;;;;;;19.40;13.15;;;24.00;74.50;;;;;;5036205;28;20036;-81
2021/06/08 12:18:40;;;;;;;18.90;12.35;;;24.10;74.30;;;;;;5035375;28;20028;-81
2021/06/08 12:21:14;;;;;;;19.95;13.15;;;24.20;73.80;;;;;;5053463;28;20025;-80
2021/06/08 12:23:41;;;;;;;17.33;12.05;;;24.20;73.40;;;;;;5035599;28;20029;-82
2021/06/08 12:26:11;;;;;;;19.33;12.88;;;24.20;74.10;;;;;;5036187;28;20028;-81
2021/06/08 12:28:38;;;;;;;18.30;13.50;;;24.40;72.90;;;;;;5036083;28;20029;-81
2021/06/08 12:31:15;;;;;;;16.10;11.60;;;24.60;71.90;;;;;;5019887;28;20052;-81
2021/06/08 12:33:41;;;;;;;17.85;12.70;;;24.80;71.70;;;;;;5035280;28;20079;-82
2021/06/08 12:36:08;;;;;;;18.73;13.43;;;24.90;71.10;;;;;;5053861;28;20104;-81
2021/06/08 12:38:34;;;;;;;19.40;13.63;;;25.10;71.10;;;;;;5035601;28;20479;-81
2021/06/08 12:41:09;;;;;;;19.15;12.25;;;25.20;70.10;;;;;;5035436;28;20477;-81
2021/06/08 12:43:51;;;;;;;18.73;12.73;;;25.40;70.60;;;;;;5053804;28;20040;-82